Brawley, California
Current Conditions -  °F | °C
As of 9:53 PM on Friday 28 Nov 2014 (Local Time) from KIPL Reporting Station
Clear Clear  
Wind Chill: 54°   Ceiling: Unl
Heat Index: 54°   Visibility: 10mi
Dew Point: 38°   Wind: 0mph
Humidity: 55%   Direction: NA
Pressure: 29.86"   Gusts: NA
Location:  32.98°N, 115.53°W
Report Text: KIPL 290553Z AUTO 00000KT 10SM CLR 12/03 A2986 RMK AO2 SLP112 T01220033 10267 20117 53006
Loading
Personal Weather Stations






























Interactive Weather Map New forecast layout! Learn more

10-Day Weather Forecast

Advertisements
Track Severe Weather on mobile